Time;durP1;ratioP1;P1;durP2;ratioP2;P2;SDS_P1;SDS_P2;PMS_P1;PMS_P2;Temp;Humidity;BMP_temperature;BMP_pressure;BME280_temperature;BME280_humidity;BME280_pressure;Samples;Min_cycle;Max_cycle;Signal;HPM_P1;HPM_P2
2021/04/08 00:01:54;;;;;;;1.40;0.90;;;3.70;99.90;;;;;;5073996;28;20477;-53
2021/04/08 00:04:21;;;;;;;1.50;0.80;;;3.40;99.90;;;;;;5073743;28;20514;-55
2021/04/08 00:06:48;;;;;;;2.00;0.80;;;3.00;99.90;;;;;;5073746;28;20803;-50
2021/04/08 00:09:14;;;;;;;1.98;0.80;;;2.70;99.90;;;;;;5073473;28;20862;-55
2021/04/08 00:11:40;;;;;;;1.50;0.90;;;2.70;99.90;;;;;;5073687;28;20518;-51
2021/04/08 00:14:07;;;;;;;1.05;0.70;;;2.80;99.90;;;;;;5073138;28;20817;-53
2021/04/08 00:16:34;;;;;;;1.23;0.80;;;2.80;99.90;;;;;;5073953;28;20455;-56
2021/04/08 00:19:00;;;;;;;1.20;0.75;;;2.80;99.90;;;;;;5075211;28;20515;-55
2021/04/08 00:21:29;;;;;;;1.30;0.70;;;2.80;99.90;;;;;;5074099;28;20470;-54
2021/04/08 00:23:55;;;;;;;1.10;0.70;;;2.60;99.90;;;;;;5073650;28;20709;-53
2021/04/08 00:26:21;;;;;;;1.52;0.60;;;2.50;99.90;;;;;;5073207;28;20466;-51
2021/04/08 00:28:48;;;;;;;0.90;0.63;;;2.60;99.90;;;;;;5073682;28;20595;-52
2021/04/08 00:31:14;;;;;;;0.98;0.70;;;2.60;99.90;;;;;;5073158;28;20515;-55
2021/04/08 00:33:41;;;;;;;1.30;0.80;;;2.70;99.90;;;;;;5073166;28;21163;-53
2021/04/08 00:36:07;;;;;;;1.60;0.80;;;2.70;99.90;;;;;;5073710;28;20423;-52
2021/04/08 00:38:35;;;;;;;2.05;0.90;;;2.50;99.90;;;;;;5075382;28;20423;-53
2021/04/08 00:41:02;;;;;;;2.05;0.80;;;2.30;99.90;;;;;;5074766;28;20511;-55
2021/04/08 00:43:28;;;;;;;2.75;0.90;;;2.20;99.90;;;;;;5074677;28;20428;-55
2021/04/08 00:45:54;;;;;;;1.90;0.80;;;2.20;99.90;;;;;;5074607;28;20470;-54
2021/04/08 00:48:21;;;;;;;2.20;0.90;;;2.20;99.90;;;;;;5074551;28;20854;-54
2021/04/08 00:50:47;;;;;;;1.85;0.80;;;2.20;99.90;;;;;;5074404;28;20459;-56
2021/04/08 00:53:18;;;;;;;1.80;0.80;;;2.20;99.90;;;;;;5074345;28;20476;-55
2021/04/08 00:55:48;;;;;;;1.30;0.87;;;2.20;99.90;;;;;;5074473;28;20792;-52
2021/04/08 00:58:18;;;;;;;1.10;0.80;;;2.20;99.90;;;;;;5074382;28;20847;-55
2021/04/08 01:00:44;;;;;;;1.10;0.90;;;2.30;99.90;;;;;;5074839;28;20515;-57
2021/04/08 01:03:11;;;;;;;1.90;0.90;;;2.30;99.90;;;;;;5074404;28;20867;-53
2021/04/08 01:05:38;;;;;;;1.98;0.70;;;2.40;99.90;;;;;;5074522;28;20423;-54
2021/04/08 01:08:05;;;;;;;1.63;0.90;;;2.50;99.90;;;;;;5074568;28;20506;-54
2021/04/08 01:10:31;;;;;;;2.53;0.88;;;2.60;99.90;;;;;;5074676;28;20458;-56
2021/04/08 01:13:01;;;;;;;1.60;0.80;;;2.60;99.90;;;;;;5074251;28;20522;-55
2021/04/08 01:15:29;;;;;;;1.42;0.80;;;2.60;99.90;;;;;;5074600;28;20458;-57
2021/04/08 01:18:01;;;;;;;2.00;0.80;;;2.70;99.90;;;;;;5074276;28;20502;-53
2021/04/08 01:20:56;;;;;;;3.00;0.70;;;2.60;99.90;;;;;;5074163;28;20424;-55
2021/04/08 01:23:54;;;;;;;3.20;0.80;;;2.60;99.90;;;;;;5074231;28;20888;-56
2021/04/08 01:26:55;;;;;;;2.30;1.10;;;2.60;99.90;;;;;;5074686;28;20448;-56
2021/04/08 01:29:39;;;;;;;1.70;0.80;;;2.50;99.90;;;;;;5057633;28;20501;-56
2021/04/08 01:32:09;;;;;;;1.00;0.80;;;2.50;99.90;;;;;;5074287;28;20450;-57
2021/04/08 01:34:40;;;;;;;1.85;0.80;;;2.50;99.90;;;;;;5073991;28;20478;-55
2021/04/08 01:37:10;;;;;;;2.78;0.80;;;2.50;99.90;;;;;;5073186;28;20799;-55
2021/04/08 01:39:38;;;;;;;1.25;0.80;;;2.50;99.90;;;;;;5074257;28;20431;-55
2021/04/08 01:42:06;;;;;;;1.60;0.95;;;2.50;99.90;;;;;;5073082;28;20511;-52
2021/04/08 01:44:35;;;;;;;1.48;0.90;;;2.60;99.90;;;;;;5073256;28;20430;-55
2021/04/08 01:47:05;;;;;;;1.70;0.80;;;2.80;99.90;;;;;;5072568;28;20443;-55
2021/04/08 01:49:35;;;;;;;1.25;0.85;;;2.90;99.90;;;;;;5072448;28;20446;-55
2021/04/08 01:52:03;;;;;;;1.30;0.80;;;3.10;99.90;;;;;;5072774;28;20427;-54
2021/04/08 01:54:33;;;;;;;3.50;0.80;;;3.20;99.90;;;;;;5072406;28;20427;-55
2021/04/08 01:57:04;;;;;;;2.13;0.80;;;3.30;99.90;;;;;;5072265;28;20517;-54
2021/04/08 01:59:31;;;;;;;1.70;0.88;;;3.30;99.90;;;;;;5071224;28;20509;-53
2021/04/08 02:01:58;;;;;;;1.40;0.70;;;3.40;99.90;;;;;;5071610;28;20485;-56
2021/04/08 02:04:26;;;;;;;1.52;0.80;;;3.40;99.90;;;;;;5076010;28;20458;-53
2021/04/08 02:06:55;;;;;;;2.72;0.70;;;3.40;99.90;;;;;;5075816;28;20467;-56
2021/04/08 02:09:23;;;;;;;1.55;0.70;;;3.50;99.90;;;;;;5076234;28;20751;-56
2021/04/08 02:11:50;;;;;;;1.00;0.70;;;3.60;99.90;;;;;;5075765;28;20502;-55
2021/04/08 02:14:17;;;;;;;1.00;0.70;;;3.60;99.90;;;;;;5076033;28;20478;-54
2021/04/08 02:16:45;;;;;;;1.20;0.70;;;3.70;99.90;;;;;;5077203;28;20513;-55
2021/04/08 02:19:13;;;;;;;3.00;0.60;;;3.70;99.90;;;;;;5077414;28;20431;-56
2021/04/08 02:21:40;;;;;;;1.02;0.60;;;3.70;99.90;;;;;;5077316;28;20463;-56
2021/04/08 02:24:10;;;;;;;0.95;0.60;;;3.70;99.90;;;;;;5077563;28;20730;-54
2021/04/08 02:26:39;;;;;;;1.30;0.60;;;3.70;99.90;;;;;;5076810;28;20419;-55
2021/04/08 02:29:06;;;;;;;0.95;0.60;;;3.60;99.90;;;;;;5077339;28;20492;-53
2021/04/08 02:31:37;;;;;;;1.30;0.50;;;3.50;99.90;;;;;;5076399;28;20419;-53
2021/04/08 02:34:05;;;;;;;1.45;0.50;;;3.50;99.90;;;;;;5076074;28;20447;-55
2021/04/08 02:36:32;;;;;;;1.10;0.60;;;3.40;99.90;;;;;;5076933;28;20738;-56
2021/04/08 02:38:58;;;;;;;1.60;0.67;;;3.20;99.90;;;;;;5077404;28;21221;-56
2021/04/08 02:41:25;;;;;;;0.90;0.50;;;3.00;99.90;;;;;;5076851;28;20497;-54
2021/04/08 02:43:52;;;;;;;1.00;0.60;;;3.00;99.90;;;;;;5076843;28;20527;-56
2021/04/08 02:46:18;;;;;;;1.00;0.60;;;3.00;99.90;;;;;;5076864;28;20781;-54
2021/04/08 02:48:45;;;;;;;2.20;0.60;;;3.00;99.90;;;;;;5076585;28;20482;-55
2021/04/08 02:51:17;;;;;;;0.98;0.60;;;3.00;99.90;;;;;;5077221;28;20424;-55
2021/04/08 02:53:51;;;;;;;0.88;0.55;;;3.00;99.90;;;;;;5076505;28;20467;-53
2021/04/08 02:56:25;;;;;;;0.80;0.50;;;3.10;99.90;;;;;;5076469;28;20411;-56
2021/04/08 02:58:55;;;;;;;1.33;0.60;;;3.10;99.90;;;;;;5076180;28;20889;-54
2021/04/08 03:01:26;;;;;;;1.50;0.60;;;3.30;99.90;;;;;;5076664;28;20469;-56
2021/04/08 03:03:54;;;;;;;0.95;0.55;;;3.30;99.90;;;;;;5076480;28;20896;-56
2021/04/08 03:06:21;;;;;;;0.88;0.50;;;3.40;99.90;;;;;;5076526;28;20664;-56
2021/04/08 03:08:50;;;;;;;0.90;0.60;;;3.50;99.90;;;;;;5076457;28;20879;-57
2021/04/08 03:11:21;;;;;;;1.08;0.47;;;3.60;99.90;;;;;;5076385;28;20803;-57
2021/04/08 03:13:50;;;;;;;1.80;0.50;;;3.70;99.90;;;;;;5075894;28;20478;-53
2021/04/08 03:16:21;;;;;;;1.10;0.50;;;3.90;99.90;;;;;;5076166;28;20420;-56
2021/04/08 03:18:50;;;;;;;1.10;0.50;;;4.00;99.90;;;;;;5076216;28;20427;-55
2021/04/08 03:21:17;;;;;;;0.80;0.47;;;4.00;99.90;;;;;;5076385;28;20519;-55
2021/04/08 03:23:44;;;;;;;1.20;0.50;;;4.00;99.90;;;;;;5076104;28;20838;-55
2021/04/08 03:26:11;;;;;;;1.52;0.60;;;4.00;99.90;;;;;;5076246;28;20466;-55
2021/04/08 03:28:39;;;;;;;1.70;0.40;;;4.00;99.90;;;;;;5076054;28;20897;-56
2021/04/08 03:31:07;;;;;;;0.77;0.40;;;4.00;99.90;;;;;;5075479;28;20891;-54
2021/04/08 03:33:34;;;;;;;0.80;0.50;;;4.00;99.90;;;;;;5075491;28;20434;-56
2021/04/08 03:36:02;;;;;;;0.88;0.40;;;4.00;99.90;;;;;;5076214;28;20513;-53
2021/04/08 03:38:29;;;;;;;0.60;0.40;;;4.00;99.90;;;;;;5075990;28;20431;-55
2021/04/08 03:40:58;;;;;;;0.68;0.40;;;4.10;99.90;;;;;;5076023;28;20420;-57
2021/04/08 03:43:26;;;;;;;1.42;0.47;;;4.30;99.90;;;;;;5075569;28;20420;-55
2021/04/08 03:45:52;;;;;;;1.70;0.40;;;4.10;99.90;;;;;;5075774;28;20447;-53
2021/04/08 03:48:20;;;;;;;1.00;0.40;;;4.40;99.90;;;;;;5075500;28;20467;-57
2021/04/08 03:50:48;;;;;;;0.80;0.50;;;4.50;99.90;;;;;;5075543;28;20431;-56
2021/04/08 03:53:17;;;;;;;0.70;0.50;;;4.70;99.90;;;;;;5075308;28;20435;-56
2021/04/08 03:55:46;;;;;;;0.90;0.50;;;4.70;99.90;;;;;;5075197;28;20466;-57
2021/04/08 03:58:13;;;;;;;1.55;0.52;;;4.70;99.90;;;;;;5075329;28;20717;-57
2021/04/08 04:00:40;;;;;;;1.27;0.55;;;4.50;99.90;;;;;;5075095;28;20908;-57
2021/04/08 04:03:09;;;;;;;1.10;0.40;;;4.20;99.90;;;;;;5075326;28;20895;-56
2021/04/08 04:05:37;;;;;;;2.17;0.60;;;3.80;99.90;;;;;;5074708;28;20499;-56
2021/04/08 04:08:05;;;;;;;1.00;0.50;;;3.70;99.90;;;;;;5073405;28;20838;-56
2021/04/08 04:10:36;;;;;;;1.00;0.50;;;3.70;99.90;;;;;;5073686;28;20455;-56
2021/04/08 04:13:03;;;;;;;0.85;0.47;;;3.60;99.90;;;;;;5073560;28;20439;-56
2021/04/08 04:15:31;;;;;;;1.15;0.60;;;3.40;99.90;;;;;;5073011;28;20498;-55
2021/04/08 04:17:59;;;;;;;1.10;0.50;;;3.20;99.90;;;;;;5071733;28;20450;-55
2021/04/08 04:20:27;;;;;;;0.80;0.60;;;3.20;99.90;;;;;;5073085;28;20420;-56
2021/04/08 04:22:54;;;;;;;1.30;0.50;;;3.10;99.90;;;;;;5074560;28;20441;-57
2021/04/08 04:25:21;;;;;;;1.80;0.50;;;3.10;99.90;;;;;;5074363;28;20713;-56
2021/04/08 04:27:47;;;;;;;0.80;0.50;;;3.10;99.90;;;;;;5089849;28;20856;-57
2021/04/08 04:30:15;;;;;;;0.82;0.50;;;3.00;99.90;;;;;;5094533;28;20453;-55
2021/04/08 04:32:41;;;;;;;1.70;0.50;;;2.90;99.90;;;;;;5094011;28;20900;-56
2021/04/08 04:35:09;;;;;;;1.00;0.60;;;2.80;99.90;;;;;;5094643;28;20457;-56
2021/04/08 04:37:35;;;;;;;1.50;0.60;;;2.70;99.90;;;;;;5093793;28;20457;-56
2021/04/08 04:40:04;;;;;;;1.00;0.50;;;2.90;99.90;;;;;;5094932;28;20474;-55
2021/04/08 04:42:30;;;;;;;0.83;0.50;;;2.90;99.90;;;;;;5095622;28;20434;-56
2021/04/08 04:44:57;;;;;;;1.10;0.60;;;2.90;99.90;;;;;;5094848;28;20430;-56
2021/04/08 04:47:23;;;;;;;0.80;0.50;;;2.80;99.90;;;;;;5094988;28;20529;-55
2021/04/08 04:49:50;;;;;;;1.10;0.50;;;2.70;99.90;;;;;;5093485;28;20444;-54
2021/04/08 04:52:17;;;;;;;1.00;0.50;;;2.70;99.90;;;;;;5094191;28;20778;-55
2021/04/08 04:54:43;;;;;;;0.98;0.50;;;2.70;99.90;;;;;;5094823;28;20990;-56
2021/04/08 04:57:11;;;;;;;1.50;0.50;;;2.70;99.90;;;;;;5093392;28;20448;-57
2021/04/08 04:59:37;;;;;;;2.15;0.50;;;2.70;99.90;;;;;;5094980;28;20454;-54
2021/04/08 05:02:04;;;;;;;1.37;0.60;;;2.70;99.90;;;;;;5093639;28;20480;-55
2021/04/08 05:04:30;;;;;;;2.00;0.50;;;2.70;99.90;;;;;;5092994;28;20457;-55
2021/04/08 05:06:57;;;;;;;1.25;0.60;;;2.60;99.90;;;;;;5093819;28;20783;-56
2021/04/08 05:09:23;;;;;;;1.67;0.60;;;2.60;99.90;;;;;;5092615;28;20430;-52
2021/04/08 05:11:50;;;;;;;0.90;0.60;;;2.70;99.90;;;;;;5093170;28;20424;-55
2021/04/08 05:14:17;;;;;;;1.10;0.57;;;2.70;99.90;;;;;;5092604;28;20577;-54
2021/04/08 05:16:43;;;;;;;1.20;0.60;;;2.70;99.90;;;;;;5078389;28;20514;-55
2021/04/08 05:19:10;;;;;;;2.50;0.60;;;2.80;99.90;;;;;;5072592;28;20508;-56
2021/04/08 05:21:36;;;;;;;1.48;0.70;;;2.80;99.90;;;;;;5072592;28;20455;-54
2021/04/08 05:24:02;;;;;;;1.15;0.70;;;2.80;99.90;;;;;;5085201;28;20461;-56
2021/04/08 05:26:29;;;;;;;0.90;0.60;;;2.90;99.90;;;;;;5089722;28;20422;-55
2021/04/08 05:28:55;;;;;;;1.00;0.70;;;2.90;99.90;;;;;;5090338;28;20548;-56
2021/04/08 05:31:23;;;;;;;1.00;0.70;;;3.10;99.90;;;;;;5093575;28;20446;-56
2021/04/08 05:33:50;;;;;;;1.40;0.70;;;3.20;99.90;;;;;;5093906;28;20476;-53
2021/04/08 05:36:17;;;;;;;1.17;0.70;;;3.30;99.90;;;;;;5090852;28;20421;-56
2021/04/08 05:38:43;;;;;;;1.20;0.70;;;3.30;99.90;;;;;;5097208;28;20511;-57
2021/04/08 05:41:09;;;;;;;2.50;0.63;;;3.40;99.90;;;;;;5097757;28;20421;-56
2021/04/08 05:43:37;;;;;;;1.50;0.70;;;3.60;99.90;;;;;;5089474;28;20481;-56
2021/04/08 05:46:06;;;;;;;1.23;0.60;;;3.80;99.90;;;;;;5083144;28;20536;-57
2021/04/08 05:48:33;;;;;;;0.90;0.60;;;3.80;99.90;;;;;;5077875;28;20427;-56
2021/04/08 05:50:59;;;;;;;1.90;0.60;;;4.30;99.90;;;;;;5096468;28;20418;-56
2021/04/08 05:53:26;;;;;;;1.10;0.57;;;4.40;99.90;;;;;;5097087;28;20469;-56
2021/04/08 05:55:52;;;;;;;1.00;0.60;;;4.60;99.90;;;;;;5094600;28;20481;-57
2021/04/08 05:58:19;;;;;;;1.10;0.70;;;4.80;99.90;;;;;;5087427;28;20504;-56
2021/04/08 06:00:45;;;;;;;0.80;0.60;;;4.70;99.90;;;;;;5094738;28;20504;-56
2021/04/08 06:03:12;;;;;;;1.00;0.60;;;4.70;99.90;;;;;;5077149;28;20467;-57
2021/04/08 06:05:40;;;;;;;0.97;0.50;;;4.70;99.90;;;;;;5076906;28;20423;-56
2021/04/08 06:08:07;;;;;;;0.70;0.50;;;4.60;99.90;;;;;;5084690;28;20426;-55
2021/04/08 06:10:34;;;;;;;1.15;0.60;;;4.80;99.90;;;;;;5097466;28;20829;-56
2021/04/08 06:13:00;;;;;;;1.05;0.57;;;5.00;99.90;;;;;;5097393;28;20464;-57
2021/04/08 06:15:29;;;;;;;1.20;0.55;;;4.90;99.90;;;;;;5095655;28;20550;-57
2021/04/08 06:17:55;;;;;;;1.25;0.50;;;4.80;99.90;;;;;;5078046;28;20415;-56
2021/04/08 06:20:23;;;;;;;1.25;0.52;;;4.80;99.90;;;;;;5083697;28;20512;-57
2021/04/08 06:22:52;;;;;;;0.90;0.50;;;4.90;99.90;;;;;;5096103;28;20484;-55
2021/04/08 06:25:18;;;;;;;1.70;0.60;;;5.10;99.90;;;;;;5095120;28;20452;-56
2021/04/08 06:27:45;;;;;;;0.90;0.50;;;4.90;99.90;;;;;;5094880;28;20849;-55
2021/04/08 06:30:12;;;;;;;0.90;0.55;;;4.70;99.90;;;;;;5096421;28;20479;-56
2021/04/08 06:32:39;;;;;;;0.98;0.50;;;4.60;99.90;;;;;;5092794;28;20453;-55
2021/04/08 06:35:07;;;;;;;1.10;0.60;;;4.60;99.90;;;;;;5088521;28;20523;-55
2021/04/08 06:37:33;;;;;;;1.90;0.65;;;4.60;99.90;;;;;;5081891;28;20476;-55
2021/04/08 06:40:01;;;;;;;1.88;0.60;;;4.70;99.90;;;;;;5091729;28;20453;-56
2021/04/08 06:42:27;;;;;;;0.97;0.60;;;4.80;99.90;;;;;;5093112;28;20468;-56
2021/04/08 06:44:56;;;;;;;0.88;0.50;;;5.00;99.90;;;;;;5095751;28;20468;-56
2021/04/08 06:47:27;;;;;;;1.10;0.70;;;5.10;99.90;;;;;;5095558;28;20430;-56
2021/04/08 06:49:58;;;;;;;2.30;0.70;;;5.10;99.90;;;;;;5075617;28;20454;-53
2021/04/08 06:52:25;;;;;;;0.90;0.60;;;5.10;99.90;;;;;;5075805;28;20431;-56
2021/04/08 06:54:52;;;;;;;2.63;0.88;;;5.30;99.90;;;;;;5075112;28;20819;-57
2021/04/08 06:57:20;;;;;;;1.90;0.70;;;5.20;99.90;;;;;;5088767;28;20467;-57
2021/04/08 06:59:47;;;;;;;2.53;0.80;;;5.00;99.90;;;;;;5093834;28;20470;-58
2021/04/08 07:02:17;;;;;;;2.60;0.95;;;5.10;99.90;;;;;;5094026;28;20501;-58
2021/04/08 07:04:43;;;;;;;3.92;1.20;;;5.00;99.90;;;;;;5094067;28;20426;-57
2021/04/08 07:07:10;;;;;;;4.40;0.70;;;5.30;99.90;;;;;;5092642;28;20753;-59
2021/04/08 07:09:36;;;;;;;1.63;0.80;;;5.50;99.90;;;;;;5093529;28;20464;-58
2021/04/08 07:12:04;;;;;;;1.52;0.90;;;5.80;99.90;;;;;;5094862;28;20466;-58
2021/04/08 07:14:32;;;;;;;3.70;1.00;;;5.40;99.90;;;;;;5077389;28;20435;-57
2021/04/08 07:16:58;;;;;;;3.70;0.90;;;5.10;99.90;;;;;;5076732;28;20863;-55
2021/04/08 07:19:25;;;;;;;1.70;0.93;;;4.90;99.90;;;;;;5093630;28;20430;-57
2021/04/08 07:21:52;;;;;;;1.60;1.00;;;5.00;99.90;;;;;;5091700;28;20512;-55
2021/04/08 07:24:20;;;;;;;1.60;0.95;;;5.00;99.90;;;;;;5089604;28;20426;-56
2021/04/08 07:26:55;;;;;;;2.85;1.10;;;5.00;99.90;;;;;;5090363;28;20417;-57
2021/04/08 07:29:24;;;;;;;1.48;0.90;;;5.00;99.90;;;;;;5092237;28;21068;-59
2021/04/08 07:31:51;;;;;;;1.58;0.90;;;5.30;99.90;;;;;;5092882;28;21845;-58
2021/04/08 07:34:35;;;;;;;1.60;1.00;;;5.80;99.90;;;;;;5080127;28;20603;-59
2021/04/08 07:37:04;;;;;;;1.40;0.90;;;6.10;99.90;;;;;;5082814;28;20421;-56
2021/04/08 07:39:36;;;;;;;2.50;1.00;;;6.50;99.90;;;;;;5085594;28;20422;-55
2021/04/08 07:42:07;;;;;;;3.20;1.00;;;6.60;99.90;;;;;;5093741;28;20425;-57
2021/04/08 07:44:48;;;;;;;2.22;0.98;;;6.80;99.90;;;;;;5083464;28;20427;-54
2021/04/08 07:47:21;;;;;;;2.90;1.02;;;6.70;99.90;;;;;;5081955;28;20812;-56
2021/04/08 07:49:48;;;;;;;2.87;1.20;;;6.60;99.90;;;;;;5093960;28;20931;-54
2021/04/08 07:52:23;;;;;;;3.17;1.40;;;6.30;99.90;;;;;;5093320;28;20863;-54
2021/04/08 07:55:01;;;;;;;2.00;1.10;;;6.20;99.90;;;;;;5093485;28;20691;-55
2021/04/08 07:57:29;;;;;;;2.42;1.27;;;5.80;99.90;;;;;;5072300;28;20738;-55
2021/04/08 07:59:56;;;;;;;1.77;1.00;;;5.70;99.90;;;;;;5088129;28;20745;-55
2021/04/08 08:02:25;;;;;;;2.20;1.00;;;5.40;99.90;;;;;;5093854;28;20745;-55
2021/04/08 08:05:16;;;;;;;2.28;1.00;;;5.00;99.90;;;;;;5093888;28;20468;-53
2021/04/08 08:07:43;;;;;;;1.88;1.00;;;5.00;99.90;;;;;;5094167;28;20425;-61
2021/04/08 08:10:18;;;;;;;1.70;1.10;;;5.20;99.90;;;;;;5094275;28;20433;-53
2021/04/08 08:12:45;;;;;;;2.57;1.07;;;5.30;99.90;;;;;;5094234;28;20445;-54
2021/04/08 08:15:27;;;;;;;1.60;0.90;;;5.50;99.90;;;;;;5092831;28;20533;-55
2021/04/08 08:17:56;;;;;;;1.67;0.90;;;5.90;99.90;;;;;;5093593;28;20438;-57
2021/04/08 08:20:23;;;;;;;1.70;0.90;;;6.00;99.90;;;;;;5092431;28;20833;-54
2021/04/08 08:22:50;;;;;;;2.30;1.20;;;5.90;99.90;;;;;;5087862;28;20448;-54
2021/04/08 08:25:23;;;;;;;1.30;0.90;;;5.60;99.90;;;;;;5071961;28;20761;-54
2021/04/08 08:27:51;;;;;;;2.53;1.20;;;5.60;99.90;;;;;;5079728;28;20418;-60
2021/04/08 08:30:19;;;;;;;2.70;0.80;;;5.60;99.90;;;;;;5072066;28;20859;-54
2021/04/08 08:33:06;;;;;;;1.80;0.80;;;6.10;99.90;;;;;;5072130;28;20427;-55
2021/04/08 08:35:32;;;;;;;1.10;0.80;;;6.50;99.90;;;;;;5082801;28;20504;-54
2021/04/08 08:38:14;;;;;;;1.17;0.80;;;6.60;99.90;;;;;;5092289;28;20457;-54
2021/04/08 08:40:42;;;;;;;1.90;0.77;;;6.30;99.90;;;;;;5073787;28;20426;-53
2021/04/08 08:43:10;;;;;;;2.63;0.90;;;6.10;99.90;;;;;;5090621;28;20440;-52
2021/04/08 08:45:37;;;;;;;1.00;0.75;;;5.80;99.90;;;;;;5082471;28;20418;-54
2021/04/08 08:48:10;;;;;;;1.65;0.80;;;5.70;99.90;;;;;;5091265;28;20461;-53
2021/04/08 08:50:38;;;;;;;1.03;0.70;;;5.80;99.90;;;;;;5093407;28;20810;-50
2021/04/08 08:53:07;;;;;;;1.42;0.80;;;6.20;99.90;;;;;;5091802;28;20523;-53
2021/04/08 08:55:33;;;;;;;1.60;0.80;;;6.60;99.90;;;;;;5092724;28;20418;-54
2021/04/08 08:58:00;;;;;;;1.80;0.70;;;6.40;99.90;;;;;;5093796;28;20425;-52
2021/04/08 09:00:30;;;;;;;1.50;0.80;;;6.30;99.90;;;;;;5093434;28;20757;-54
2021/04/08 09:02:58;;;;;;;2.00;0.90;;;6.20;99.90;;;;;;5093001;28;20472;-50
2021/04/08 09:05:29;;;;;;;1.00;0.80;;;6.40;99.90;;;;;;5092031;28;20431;-54
2021/04/08 09:07:59;;;;;;;0.80;0.60;;;6.60;99.90;;;;;;5090662;28;20422;-51
2021/04/08 09:10:30;;;;;;;1.10;0.80;;;6.90;99.90;;;;;;5091458;28;20475;-53
2021/04/08 09:12:57;;;;;;;1.67;0.70;;;6.70;99.90;;;;;;5093792;28;20464;-54
2021/04/08 09:15:24;;;;;;;1.05;0.70;;;6.40;99.90;;;;;;5094654;28;20426;-51
2021/04/08 09:17:56;;;;;;;1.30;0.70;;;6.50;99.90;;;;;;5094922;28;20420;-54
2021/04/08 09:20:23;;;;;;;3.30;0.70;;;6.70;99.90;;;;;;5095109;28;20418;-53
2021/04/08 09:22:53;;;;;;;2.10;0.70;;;7.00;99.90;;;;;;5094634;28;20417;-55
2021/04/08 09:25:21;;;;;;;1.10;0.70;;;6.60;99.90;;;;;;5095786;28;20703;-54
2021/04/08 09:27:52;;;;;;;2.97;0.80;;;6.50;99.90;;;;;;5095671;28;20569;-56
2021/04/08 09:30:57;;;;;;;0.90;0.70;;;6.60;99.90;;;;;;5094634;28;20497;-51
2021/04/08 09:33:58;;;;;;;2.40;0.70;;;6.50;99.90;;;;;;5011804;28;20718;-54
2021/04/08 09:36:42;;;;;;;1.90;0.60;;;6.90;99.90;;;;;;5093229;28;20421;-55
2021/04/08 09:39:28;;;;;;;1.90;0.73;;;7.00;99.90;;;;;;5092144;28;20725;-51
2021/04/08 09:42:02;;;;;;;2.80;0.70;;;7.30;99.90;;;;;;5092575;28;20433;-53
2021/04/08 09:44:29;;;;;;;1.00;0.60;;;7.40;99.90;;;;;;5094233;28;20563;-51
2021/04/08 09:46:58;;;;;;;1.00;0.60;;;7.30;99.90;;;;;;5095675;28;20476;-54
2021/04/08 09:49:47;;;;;;;2.03;0.70;;;7.50;99.90;;;;;;5095263;28;20430;-50
2021/04/08 09:52:15;;;;;;;0.73;0.57;;;7.60;99.90;;;;;;5092944;28;20913;-55
2021/04/08 09:54:46;;;;;;;1.23;0.60;;;7.60;99.90;;;;;;5092871;28;20662;-56
2021/04/08 09:57:33;;;;;;;2.13;0.70;;;7.70;99.90;;;;;;5092895;28;20546;-54
2021/04/08 10:00:00;;;;;;;1.10;0.70;;;7.30;99.90;;;;;;5094264;28;20829;-54
2021/04/08 10:02:28;;;;;;;0.97;0.70;;;7.50;99.90;;;;;;5094123;28;20558;-55
2021/04/08 10:05:09;;;;;;;1.40;0.73;;;7.40;99.90;;;;;;5093990;28;20516;-50
2021/04/08 10:07:53;;;;;;;1.40;0.70;;;7.10;99.90;;;;;;5094388;28;20461;-53
2021/04/08 10:10:23;;;;;;;1.08;0.70;;;6.70;99.90;;;;;;5095236;28;20880;-52
2021/04/08 10:12:50;;;;;;;1.90;0.70;;;7.20;99.90;;;;;;5094656;28;20418;-53
2021/04/08 10:15:18;;;;;;;1.80;0.70;;;7.40;99.90;;;;;;5095320;28;20814;-53
2021/04/08 10:17:45;;;;;;;1.60;0.88;;;7.70;99.90;;;;;;5095284;28;20515;-54
2021/04/08 10:20:12;;;;;;;2.50;0.70;;;7.60;99.90;;;;;;5094534;28;20429;-54
2021/04/08 10:22:41;;;;;;;2.53;0.93;;;7.50;99.90;;;;;;5094096;28;20461;-54
2021/04/08 10:25:09;;;;;;;1.00;0.70;;;7.30;99.90;;;;;;5095005;28;20849;-55
2021/04/08 10:27:37;;;;;;;1.55;0.80;;;7.40;99.90;;;;;;5094440;28;20449;-53
2021/04/08 10:30:22;;;;;;;2.42;0.90;;;7.90;99.90;;;;;;5094670;28;20449;-56
2021/04/08 10:32:48;;;;;;;1.70;0.80;;;8.30;99.90;;;;;;5093682;28;20730;-56
2021/04/08 10:35:26;;;;;;;1.40;0.80;;;8.60;99.90;;;;;;5090020;28;20464;-55
2021/04/08 10:38:04;;;;;;;1.10;0.90;;;8.70;99.90;;;;;;5091332;28;20409;-55
2021/04/08 10:40:31;;;;;;;1.20;0.70;;;8.90;99.90;;;;;;5091295;28;20510;-55
2021/04/08 10:43:10;;;;;;;1.20;0.63;;;9.00;99.90;;;;;;5090844;28;20461;-55
2021/04/08 10:45:36;;;;;;;1.30;0.90;;;9.20;99.90;;;;;;5092866;28;20848;-55
2021/04/08 10:48:07;;;;;;;0.90;0.60;;;9.10;99.90;;;;;;5091028;28;20487;-53
2021/04/08 10:50:33;;;;;;;3.00;0.70;;;8.30;99.90;;;;;;5091715;28;20830;-57
2021/04/08 10:53:01;;;;;;;2.35;0.80;;;8.10;99.90;;;;;;5091070;28;20645;-55
2021/04/08 10:55:28;;;;;;;1.90;0.90;;;7.90;99.90;;;;;;5090722;28;20430;-52
2021/04/08 10:57:55;;;;;;;1.73;0.80;;;8.00;99.90;;;;;;5092769;28;20883;-55
2021/04/08 11:00:24;;;;;;;1.40;0.80;;;8.30;99.90;;;;;;5093293;28;20456;-54
2021/04/08 11:02:51;;;;;;;4.53;0.88;;;8.50;99.90;;;;;;5092509;28;20789;-53
2021/04/08 11:05:19;;;;;;;1.90;0.90;;;8.80;99.90;;;;;;5091133;28;20472;-54
2021/04/08 11:07:48;;;;;;;1.30;0.70;;;8.60;99.90;;;;;;5088979;28;20425;-53
2021/04/08 11:10:17;;;;;;;1.10;0.70;;;8.30;99.90;;;;;;5095242;28;20410;-55
2021/04/08 11:12:47;;;;;;;1.50;0.80;;;8.20;99.90;;;;;;5094211;28;20535;-55
2021/04/08 11:15:15;;;;;;;1.40;0.70;;;8.60;99.90;;;;;;5083169;28;20528;-56
2021/04/08 11:17:47;;;;;;;1.05;0.60;;;9.10;99.90;;;;;;5083897;28;20454;-52
2021/04/08 11:20:15;;;;;;;1.25;0.80;;;9.00;99.90;;;;;;5090743;28;20442;-55
2021/04/08 11:22:44;;;;;;;0.98;0.70;;;9.40;99.90;;;;;;5090586;28;20498;-54
2021/04/08 11:25:13;;;;;;;1.20;0.70;;;9.70;99.70;;;;;;5071026;28;21163;-52
2021/04/08 11:27:43;;;;;;;1.05;0.70;;;9.10;98.40;;;;;;5069856;28;20874;-55
2021/04/08 11:30:12;;;;;;;1.00;0.60;;;9.10;99.70;;;;;;5070472;28;20489;-51
2021/04/08 11:32:46;;;;;;;1.00;0.60;;;9.20;99.60;;;;;;5085488;28;20426;-53
2021/04/08 11:35:25;;;;;;;1.10;0.70;;;9.50;99.90;;;;;;5082670;28;20426;-52
2021/04/08 11:38:02;;;;;;;1.00;0.60;;;9.10;98.30;;;;;;5089651;28;20453;-55
2021/04/08 11:40:29;;;;;;;1.13;0.70;;;8.90;99.90;;;;;;5088528;28;20453;-55
2021/04/08 11:42:56;;;;;;;1.05;0.60;;;8.40;98.70;;;;;;5091945;28;20461;-56
2021/04/08 11:45:24;;;;;;;1.25;0.60;;;8.20;99.20;;;;;;5093124;28;20410;-55
2021/04/08 11:48:04;;;;;;;1.00;0.70;;;8.40;99.90;;;;;;5093842;28;20461;-54
2021/04/08 11:50:32;;;;;;;1.60;0.60;;;9.00;99.90;;;;;;5094554;28;20838;-57
2021/04/08 11:53:08;;;;;;;1.60;0.70;;;8.90;99.40;;;;;;5094027;28;20773;-55
2021/04/08 11:55:36;;;;;;;0.90;0.60;;;9.60;99.10;;;;;;5093357;28;20491;-57
2021/04/08 11:58:03;;;;;;;1.00;0.50;;;10.40;97.20;;;;;;5092000;28;20638;-56
2021/04/08 12:00:30;;;;;;;2.00;0.60;;;11.30;97.40;;;;;;5093447;28;20848;-57
2021/04/08 12:02:58;;;;;;;0.82;0.50;;;11.50;92.50;;;;;;5092435;28;20422;-57
2021/04/08 12:05:24;;;;;;;0.90;0.60;;;11.30;92.70;;;;;;5091780;28;20504;-60
2021/04/08 12:07:51;;;;;;;1.20;0.60;;;10.50;92.20;;;;;;5091576;28;20422;-59
2021/04/08 12:10:25;;;;;;;2.38;0.60;;;9.80;93.20;;;;;;5093476;28;20725;-58
2021/04/08 12:12:56;;;;;;;1.00;0.60;;;9.30;94.90;;;;;;5093580;28;20519;-58
2021/04/08 12:15:35;;;;;;;1.70;0.70;;;9.00;95.20;;;;;;5091671;28;20426;-58
2021/04/08 12:18:10;;;;;;;1.23;0.70;;;9.50;95.80;;;;;;5091622;28;20426;-58
2021/04/08 12:20:37;;;;;;;1.80;0.70;;;9.80;95.10;;;;;;5086625;28;20434;-58
2021/04/08 12:23:14;;;;;;;1.10;0.50;;;9.80;94.90;;;;;;5093827;28;20457;-57
2021/04/08 12:25:54;;;;;;;1.40;0.50;;;9.80;92.30;;;;;;5093640;28;20845;-57
2021/04/08 12:28:21;;;;;;;1.10;0.60;;;9.50;93.80;;;;;;5094290;28;20467;-57
2021/04/08 12:30:57;;;;;;;0.90;0.60;;;9.40;94.30;;;;;;5092766;28;20500;-58
2021/04/08 12:33:26;;;;;;;1.20;0.60;;;8.80;94.10;;;;;;5092619;28;20461;-58
2021/04/08 12:35:53;;;;;;;1.00;0.60;;;8.70;95.80;;;;;;5093492;28;20453;-58
2021/04/08 12:38:20;;;;;;;0.93;0.50;;;8.80;94.80;;;;;;5092552;28;20457;-59
2021/04/08 12:40:47;;;;;;;0.80;0.50;;;8.60;94.40;;;;;;5090614;28;20786;-57
2021/04/08 12:43:14;;;;;;;0.90;0.50;;;8.70;95.70;;;;;;5093166;28;20804;-57
2021/04/08 12:45:41;;;;;;;1.52;0.60;;;8.90;95.90;;;;;;5090835;28;20429;-58
2021/04/08 12:48:08;;;;;;;0.90;0.60;;;9.10;96.40;;;;;;5090195;28;20849;-58
2021/04/08 12:50:37;;;;;;;0.60;0.40;;;9.10;96.10;;;;;;5090964;28;20437;-58
2021/04/08 12:53:04;;;;;;;1.52;0.60;;;9.60;96.60;;;;;;5086541;28;20789;-58
2021/04/08 12:55:30;;;;;;;1.40;0.60;;;9.90;95.60;;;;;;5092682;28;20753;-58
2021/04/08 12:57:57;;;;;;;1.70;0.60;;;9.90;94.90;;;;;;5090870;28;20568;-59
2021/04/08 13:00:24;;;;;;;1.30;0.50;;;10.20;93.30;;;;;;5089334;28;20520;-58
2021/04/08 13:02:52;;;;;;;0.80;0.50;;;9.90;93.60;;;;;;5090973;28;20422;-59
2021/04/08 13:05:18;;;;;;;1.20;0.60;;;9.70;93.80;;;;;;5091353;28;20457;-59
2021/04/08 13:07:46;;;;;;;0.80;0.50;;;9.40;93.50;;;;;;5075372;28;20431;-58
2021/04/08 13:10:13;;;;;;;1.45;0.50;;;9.10;92.80;;;;;;5068433;28;20458;-57